Time;durP1;ratioP1;P1;durP2;ratioP2;P2;SDS_P1;SDS_P2;PMS_P1;PMS_P2;Temp;Humidity;BMP_temperature;BMP_pressure;BME280_temperature;BME280_humidity;BME280_pressure;Samples;Min_cycle;Max_cycle;Signal;HPM_P1;HPM_P2
2023/04/25 00:00:47;;;;;;;;;;;;;;;26.36;40.19;93680.75;5052276;28;9152;-61
2023/04/25 00:03:20;;;;;;;;;;;;;;;26.36;39.90;93674.50;5037091;28;7274;-61
2023/04/25 00:05:51;;;;;;;;;;;;;;;26.35;40.16;93673.75;5054491;28;8991;-62
2023/04/25 00:08:22;;;;;;;;;;;;;;;26.34;40.75;93675.03;5053093;28;7505;-61
2023/04/25 00:10:48;;;;;;;;;;;;;;;26.34;40.77;93677.78;5036101;28;7271;-61
2023/04/25 00:13:14;;;;;;;;;;;;;;;26.36;39.75;93680.03;5035772;28;7327;-61
2023/04/25 00:15:41;;;;;;;;;;;;;;;26.34;40.16;93675.03;5047732;28;9362;-61
2023/04/25 00:18:11;;;;;;;;;;;;;;;26.34;40.56;93677.78;5035798;28;7284;-62
2023/04/25 00:20:36;;;;;;;;;;;;;;;26.34;40.17;93666.75;5038074;28;8721;-62
2023/04/25 00:23:02;;;;;;;;;;;;;;;26.32;40.17;93666.53;5052134;28;7035;-61
2023/04/25 00:25:31;;;;;;;;;;;;;;;26.33;40.79;93661.78;5035580;28;7302;-61
2023/04/25 00:28:00;;;;;;;;;;;;;;;26.32;40.11;93658.28;5035251;28;8952;-61
2023/04/25 00:30:26;;;;;;;;;;;;;;;26.31;40.43;93661.56;5052138;28;10436;-61
2023/04/25 00:32:53;;;;;;;;;;;;;;;26.31;40.49;93662.31;5035851;28;8483;-61
2023/04/25 00:35:22;;;;;;;;;;;;;;;26.29;40.06;93653.09;5054479;28;9469;-62
2023/04/25 00:37:48;;;;;;;;;;;;;;;26.31;40.02;93656.06;5053589;28;7263;-61
2023/04/25 00:40:24;;;;;;;;;;;;;;;26.28;40.57;93652.34;5037948;28;7036;-62
2023/04/25 00:42:53;;;;;;;;;;;;;;;26.31;40.21;93651.28;5037107;28;7532;-62
2023/04/25 00:45:29;;;;;;;;;;;;;;;26.29;40.05;93648.31;5053400;28;8971;-61
2023/04/25 00:47:56;;;;;;;;;;;;;;;26.29;40.63;93642.06;5036369;28;7034;-61
2023/04/25 00:50:32;;;;;;;;;;;;;;;26.30;39.93;93643.53;5053324;28;8992;-62
2023/04/25 00:53:03;;;;;;;;;;;;;;;26.29;39.95;93642.06;5053155;28;7270;-61
2023/04/25 00:55:38;;;;;;;;;;;;;;;26.29;40.39;93653.09;5053270;28;6939;-61
2023/04/25 00:58:04;;;;;;;;;;;;;;;26.28;40.84;93646.81;5035469;28;7139;-61
2023/04/25 01:00:30;;;;;;;;;;;;;;;26.26;40.41;93648.63;5052769;28;9077;-61
2023/04/25 01:02:56;;;;;;;;;;;;;;;26.26;40.70;93645.88;5035470;28;7233;-61
2023/04/25 01:05:22;;;;;;;;;;;;;;;26.27;40.14;93650.13;5052631;28;7115;-61
2023/04/25 01:07:53;;;;;;;;;;;;;;;26.27;40.38;93652.88;5052202;28;7600;-61
2023/04/25 01:10:26;;;;;;;;;;;;;;;26.27;40.36;93650.88;5052676;28;8723;-61
2023/04/25 01:12:54;;;;;;;;;;;;;;;26.28;40.57;93651.59;5040638;28;7019;-61
2023/04/25 01:15:31;;;;;;;;;;;;;;;26.26;40.55;93643.13;5072699;28;9517;-62
2023/04/25 01:18:00;;;;;;;;;;;;;;;26.27;40.20;93644.63;5072830;28;9102;-61
2023/04/25 01:20:34;;;;;;;;;;;;;;;26.24;39.76;93629.13;5073209;28;9166;-62
2023/04/25 01:23:02;;;;;;;;;;;;;;;26.26;39.96;93643.13;5052964;28;7426;-61
2023/04/25 01:25:35;;;;;;;;;;;;;;;26.25;40.38;93625.84;5071130;28;6993;-62
2023/04/25 01:28:01;;;;;;;;;;;;;;;26.25;39.97;93630.63;5073046;28;9114;-62
2023/04/25 01:30:35;;;;;;;;;;;;;;;26.25;40.42;93636.88;5072310;28;9093;-62
2023/04/25 01:33:07;;;;;;;;;;;;;;;26.24;39.72;93627.13;5053403;28;7034;-61
2023/04/25 01:35:35;;;;;;;;;;;;;;;26.25;40.70;93630.63;5072764;28;7031;-61
2023/04/25 01:38:04;;;;;;;;;;;;;;;26.25;40.24;93625.13;5055811;28;8740;-61
2023/04/25 01:40:33;;;;;;;;;;;;;;;26.19;40.08;93627.25;5072446;28;9492;-61
2023/04/25 01:43:04;;;;;;;;;;;;;;;26.21;40.30;93614.41;5061146;28;7348;-62
2023/04/25 01:45:30;;;;;;;;;;;;;;;26.22;40.59;93620.66;5050902;28;7064;-61
2023/04/25 01:47:59;;;;;;;;;;;;;;;26.22;40.75;93631.69;5034386;28;7046;-61
2023/04/25 01:50:30;;;;;;;;;;;;;;;26.22;40.46;93620.66;5054554;28;9160;-61
2023/04/25 01:52:58;;;;;;;;;;;;;;;26.20;40.80;93614.94;5053964;28;7275;-61
2023/04/25 01:55:48;;;;;;;;;;;;;;;26.21;39.76;93613.69;5036476;28;9001;-61
2023/04/25 01:58:31;;;;;;;;;;;;;;;26.20;40.74;93612.19;5053089;28;7015;-61
2023/04/25 02:00:57;;;;;;;;;;;;;;;26.21;40.68;93622.66;5037667;28;7285;-61
2023/04/25 02:03:32;;;;;;;;;;;;;;;26.20;40.06;93628.72;5053000;28;7257;-61
2023/04/25 02:06:00;;;;;;;;;;;;;;;26.20;40.82;93621.19;5052594;28;9279;-61
2023/04/25 02:08:56;;;;;;;;;;;;;;;26.19;40.29;93616.22;5052563;28;9772;-61
2023/04/25 02:11:31;;;;;;;;;;;;;;;26.19;40.74;93616.94;5049712;28;7272;-61
2023/04/25 02:14:11;;;;;;;;;;;;;;;26.19;40.00;93627.25;5035884;28;7592;-61
2023/04/25 02:16:39;;;;;;;;;;;;;;;26.19;40.61;93616.22;5036254;28;8774;-61
2023/04/25 02:19:09;;;;;;;;;;;;;;;26.16;40.17;93616.00;5055874;28;9454;-62
2023/04/25 02:21:42;;;;;;;;;;;;;;;26.17;40.18;93614.72;5040928;28;7288;-61
2023/04/25 02:24:15;;;;;;;;;;;;;;;26.18;40.79;93615.47;5039999;28;7001;-61
2023/04/25 02:26:46;;;;;;;;;;;;;;;26.16;40.88;93613.22;5039587;28;7151;-62
2023/04/25 02:29:21;;;;;;;;;;;;;;;26.16;40.36;93613.22;5057594;28;6983;-61
2023/04/25 02:31:55;;;;;;;;;;;;;;;26.14;40.25;93615.78;5041151;28;8911;-61
2023/04/25 02:34:23;;;;;;;;;;;;;;;26.16;40.59;93609.75;5059541;28;9319;-61
2023/04/25 02:36:52;;;;;;;;;;;;;;;26.15;40.29;93609.00;5040001;28;7589;-61
2023/04/25 02:39:27;;;;;;;;;;;;;;;26.15;40.73;93611.03;5056026;28;9138;-61
2023/04/25 02:42:02;;;;;;;;;;;;;;;26.13;40.12;93605.31;5040670;28;7055;-61
2023/04/25 02:45:03;;;;;;;;;;;;;;;26.16;40.19;93618.03;5055201;28;9255;-61
2023/04/25 02:47:30;;;;;;;;;;;;;;;26.16;40.89;93613.22;4976131;28;9026;-62
2023/04/25 02:50:11;;;;;;;;;;;;;;;26.14;40.02;93604.75;4976114;28;7035;-61
2023/04/25 02:53:07;;;;;;;;;;;;;;;26.14;40.92;93604.03;4961097;28;7267;-61
2023/04/25 02:55:43;;;;;;;;;;;;;;;26.13;40.18;93602.53;4921855;29;7396;-61
2023/04/25 02:58:23;;;;;;;;;;;;;;;26.12;40.93;93595.56;4936771;29;7145;-62
2023/04/25 03:01:27;;;;;;;;;;;;;;;26.11;40.60;93597.56;4937602;29;7140;-61
2023/04/25 03:03:55;;;;;;;;;;;;;;;26.11;40.75;93599.59;4865642;29;8698;-61
2023/04/25 03:06:50;;;;;;;;;;;;;;;26.11;40.17;93597.56;4877177;29;7358;-61
2023/04/25 03:09:33;;;;;;;;;;;;;;;26.08;40.44;93595.88;4825266;29;7121;-62
2023/04/25 03:12:08;;;;;;;;;;;;;;;26.07;40.27;93588.88;4824810;29;7076;-61
2023/04/25 03:14:46;;;;;;;;;;;;;;;26.09;40.62;93594.63;4825196;29;8950;-61
2023/04/25 03:17:25;;;;;;;;;;;;;;;26.07;40.21;93588.88;4803907;29;7077;-62
2023/04/25 03:19:52;;;;;;;;;;;;;;;26.09;40.49;93591.09;4806940;29;9024;-61
2023/04/25 03:22:18;;;;;;;;;;;;;;;26.10;40.12;93587.81;4827724;29;7267;-62
2023/04/25 03:24:44;;;;;;;;;;;;;;;26.06;40.61;93573.59;4857598;29;8946;-62
2023/04/25 03:27:10;;;;;;;;;;;;;;;26.08;40.23;93578.56;4847456;29;8708;-61
2023/04/25 03:29:40;;;;;;;;;;;;;;;26.08;40.10;93581.31;4878324;29;9317;-62
2023/04/25 03:32:10;;;;;;;;;;;;;;;26.07;40.71;93580.59;4878066;29;7264;-61
2023/04/25 03:34:39;;;;;;;;;;;;;;;26.08;39.92;93581.31;4939425;28;7216;-61
2023/04/25 03:37:05;;;;;;;;;;;;;;;26.08;40.81;93584.84;4956481;28;8727;-62
2023/04/25 03:39:31;;;;;;;;;;;;;;;26.07;40.85;93586.13;4989123;28;8727;-61
2023/04/25 03:41:58;;;;;;;;;;;;;;;26.06;40.03;93581.13;4973095;28;9381;-61
2023/04/25 03:44:26;;;;;;;;;;;;;;;26.05;40.63;93574.88;4989392;28;7306;-61
2023/04/25 03:46:52;;;;;;;;;;;;;;;26.03;40.43;93580.16;5053883;28;8436;-61
2023/04/25 03:49:20;;;;;;;;;;;;;;;26.05;40.06;93574.88;5067402;28;7006;-61
2023/04/25 03:51:46;;;;;;;;;;;;;;;26.05;40.17;93585.16;5056473;28;7091;-61
2023/04/25 03:54:12;;;;;;;;;;;;;;;26.03;41.00;93577.41;5048955;28;7624;-61
2023/04/25 03:56:41;;;;;;;;;;;;;;;26.02;40.77;93575.94;5072951;28;7038;-61
2023/04/25 03:59:07;;;;;;;;;;;;;;;26.01;40.85;93571.69;5050836;28;9467;-61
2023/04/25 04:01:35;;;;;;;;;;;;;;;26.04;40.78;93581.66;5052953;28;8989;-61
2023/04/25 04:04:04;;;;;;;;;;;;;;;26.05;40.41;93580.41;5052915;28;7297;-61
2023/04/25 04:06:34;;;;;;;;;;;;;;;26.01;41.08;93574.44;5053371;28;7040;-62
2023/04/25 04:09:03;;;;;;;;;;;;;;;26.03;40.28;93576.69;5061188;28;7109;-61
2023/04/25 04:11:39;;;;;;;;;;;;;;;26.01;40.62;93576.47;5075451;28;9072;-62
2023/04/25 04:14:16;;;;;;;;;;;;;;;26.02;40.05;93575.94;5074309;28;7411;-61
2023/04/25 04:16:51;;;;;;;;;;;;;;;26.05;40.22;93572.13;5073778;28;8254;-62
2023/04/25 04:19:25;;;;;;;;;;;;;;;26.01;40.04;93574.44;5057265;28;7061;-62
2023/04/25 04:21:54;;;;;;;;;;;;;;;25.99;40.63;93563.22;5057692;28;7514;-62
2023/04/25 04:24:32;;;;;;;;;;;;;;;26.02;40.18;93564.91;5074677;28;8228;-61
2023/04/25 04:26:58;;;;;;;;;;;;;;;26.02;40.14;93567.66;5055929;28;7686;-61
2023/04/25 04:29:24;;;;;;;;;;;;;;;26.02;40.83;93573.19;5052348;28;7266;-61
2023/04/25 04:31:53;;;;;;;;;;;;;;;26.02;40.22;93570.44;5052565;28;9306;-61
2023/04/25 04:34:19;;;;;;;;;;;;;;;26.01;40.64;93582.72;5053413;28;7019;-61
2023/04/25 04:36:46;;;;;;;;;;;;;;;26.01;40.11;93577.19;5052603;28;7349;-61
2023/04/25 04:39:13;;;;;;;;;;;;;;;26.01;40.30;93584.75;5048064;28;8812;-61
2023/04/25 04:41:48;;;;;;;;;;;;;;;26.01;40.79;93590.25;5055456;28;8924;-61
2023/04/25 04:44:18;;;;;;;;;;;;;;;25.99;40.91;93588.00;5073721;28;7241;-61
2023/04/25 04:46:55;;;;;;;;;;;;;;;25.97;40.14;93584.31;5072827;28;7027;-62
2023/04/25 04:49:23;;;;;;;;;;;;;;;25.98;40.28;93583.78;5057024;28;7466;-61
2023/04/25 04:51:54;;;;;;;;;;;;;;;25.98;40.69;93583.03;5074468;28;7036;-61
2023/04/25 04:54:29;;;;;;;;;;;;;;;25.98;40.48;93583.03;5057187;28;9515;-61
2023/04/25 04:57:05;;;;;;;;;;;;;;;25.97;40.81;93579.53;5073262;28;8964;-61
2023/04/25 04:59:42;;;;;;;;;;;;;;;25.98;40.39;93581.03;5053820;28;7144;-61
2023/04/25 05:02:12;;;;;;;;;;;;;;;25.98;40.82;93583.78;5036874;28;9122;-62
2023/04/25 05:04:38;;;;;;;;;;;;;;;25.98;40.27;93580.28;5036709;28;7267;-61
2023/04/25 05:07:07;;;;;;;;;;;;;;;25.99;40.19;93579.03;5036566;28;7259;-61
2023/04/25 05:09:35;;;;;;;;;;;;;;;25.96;40.44;93583.59;5051300;28;7163;-61
2023/04/25 05:12:13;;;;;;;;;;;;;;;25.98;40.66;93575.53;5036673;28;7028;-62
2023/04/25 05:14:40;;;;;;;;;;;;;;;25.98;40.00;93583.03;5057121;28;7038;-61
2023/04/25 05:17:10;;;;;;;;;;;;;;;25.97;40.20;93585.06;5053036;28;9359;-61
2023/04/25 05:19:39;;;;;;;;;;;;;;;25.96;40.94;93575.31;5040626;28;7214;-62
2023/04/25 05:22:24;;;;;;;;;;;;;;;25.96;40.81;93583.59;5053942;28;7017;-62
2023/04/25 05:25:00;;;;;;;;;;;;;;;25.95;40.33;93581.34;5054222;28;7046;-62
2023/04/25 05:27:36;;;;;;;;;;;;;;;25.92;40.09;93577.66;5035960;28;7294;-62
2023/04/25 05:30:05;;;;;;;;;;;;;;;25.95;40.46;93586.84;5037799;28;9107;-61
2023/04/25 05:32:46;;;;;;;;;;;;;;;25.91;40.13;93570.66;5053367;28;7197;-62
2023/04/25 05:35:13;;;;;;;;;;;;;;;25.95;40.57;93576.59;5053997;28;9297;-62
2023/04/25 05:37:58;;;;;;;;;;;;;;;25.94;40.75;93579.88;5051988;28;9065;-61
2023/04/25 05:41:12;;;;;;;;;;;;;;;25.94;40.25;93577.88;5052916;28;7316;-61
2023/04/25 05:43:38;;;;;;;;;;;;;;;25.93;40.89;93570.88;5067859;28;8364;-61
2023/04/25 05:46:09;;;;;;;;;;;;;;;25.93;40.99;93573.63;5053694;28;7325;-61
2023/04/25 05:48:35;;;;;;;;;;;;;;;25.92;40.89;93577.66;5053843;28;9716;-62
2023/04/25 05:51:14;;;;;;;;;;;;;;;25.93;40.74;93579.13;5054082;28;7011;-61
2023/04/25 05:53:43;;;;;;;;;;;;;;;25.93;41.13;93573.63;5043473;28;9098;-61
2023/04/25 05:56:11;;;;;;;;;;;;;;;25.91;39.86;93570.66;5039840;28;7601;-61
2023/04/25 05:58:40;;;;;;;;;;;;;;;25.92;40.39;93568.66;5041630;28;9218;-62
2023/04/25 06:01:05;;;;;;;;;;;;;;;25.92;40.81;93569.41;5056019;28;7675;-62
2023/04/25 06:03:37;;;;;;;;;;;;;;;25.95;40.07;93571.06;5062498;28;7233;-61
2023/04/25 06:06:04;;;;;;;;;;;;;;;25.92;40.64;93563.13;5066755;28;9063;-61
2023/04/25 06:08:48;;;;;;;;;;;;;;;25.90;40.06;93562.94;5060026;28;9322;-61
2023/04/25 06:11:24;;;;;;;;;;;;;;;25.91;40.58;93570.66;5076573;28;7360;-61
2023/04/25 06:13:59;;;;;;;;;;;;;;;25.92;40.66;93577.66;5053428;28;9285;-61
2023/04/25 06:16:46;;;;;;;;;;;;;;;25.91;40.76;93581.69;5043005;28;7348;-61
2023/04/25 06:19:15;;;;;;;;;;;;;;;25.89;40.83;93586.97;5059266;28;7051;-61
2023/04/25 06:21:44;;;;;;;;;;;;;;;25.89;40.08;93581.47;5055697;28;7140;-62
2023/04/25 06:24:10;;;;;;;;;;;;;;;25.89;40.38;93583.47;5055007;28;9451;-61
2023/04/25 06:26:36;;;;;;;;;;;;;;;25.89;40.83;93589.72;5054193;28;7010;-62
2023/04/25 06:29:09;;;;;;;;;;;;;;;25.89;39.94;93586.22;5042478;28;9139;-61
2023/04/25 06:31:37;;;;;;;;;;;;;;;25.89;40.01;93600.75;5038907;28;7030;-61
2023/04/25 06:34:06;;;;;;;;;;;;;;;25.90;40.72;93602.22;5039887;28;7048;-61
2023/04/25 06:36:58;;;;;;;;;;;;;;;25.90;39.97;93610.50;5055068;28;7372;-61
2023/04/25 06:39:25;;;;;;;;;;;;;;;25.91;40.51;93614.00;5056173;28;9517;-61
2023/04/25 06:42:05;;;;;;;;;;;;;;;25.87;40.19;93606.06;5056987;28;7319;-62
2023/04/25 06:44:31;;;;;;;;;;;;;;;25.90;39.76;93624.25;5046923;28;8701;-61
2023/04/25 06:47:04;;;;;;;;;;;;;;;25.86;40.64;93623.84;5039475;28;7042;-61
2023/04/25 06:49:29;;;;;;;;;;;;;;;25.87;40.33;93625.34;5057288;28;7112;-62
2023/04/25 06:52:18;;;;;;;;;;;;;;;25.88;40.85;93637.84;5039376;28;6996;-61
2023/04/25 06:54:45;;;;;;;;;;;;;;;25.88;40.83;93637.84;5059454;28;7474;-61
2023/04/25 06:57:14;;;;;;;;;;;;;;;25.88;40.45;93637.84;5039116;28;7174;-61
2023/04/25 06:59:42;;;;;;;;;;;;;;;25.87;39.97;93641.13;5037896;28;7294;-61
2023/04/25 07:02:08;;;;;;;;;;;;;;;25.86;40.85;93643.13;5037257;28;7331;-61
2023/04/25 07:04:34;;;;;;;;;;;;;;;25.86;40.40;93650.69;5041269;28;7005;-61
2023/04/25 07:07:03;;;;;;;;;;;;;;;25.84;40.48;93653.19;5054732;28;6987;-62
2023/04/25 07:09:33;;;;;;;;;;;;;;;25.86;41.01;93651.41;5054227;28;9263;-61
2023/04/25 07:12:25;;;;;;;;;;;;;;;25.85;39.79;93654.69;5054614;28;7038;-61
2023/04/25 07:15:05;;;;;;;;;;;;;;;25.85;40.13;93654.69;4978335;28;7529;-62
2023/04/25 07:17:51;;;;;;;;;;;;;;;25.84;40.50;93655.94;4978961;28;7041;-61
2023/04/25 07:20:21;;;;;;;;;;;;;;;25.82;40.60;93656.47;4979337;28;8958;-62
2023/04/25 07:23:05;;;;;;;;;;;;;;;25.82;40.20;93648.22;4994896;28;9019;-62
2023/04/25 07:25:55;;;;;;;;;;;;;;;25.82;40.29;93648.22;4979864;28;9241;-61
2023/04/25 07:28:57;;;;;;;;;;;;;;;25.81;40.19;93641.25;4994965;28;9226;-61
2023/04/25 07:31:33;;;;;;;;;;;;;;;25.80;40.24;93637.00;4987514;28;7118;-61
2023/04/25 07:34:02;;;;;;;;;;;;;;;25.81;40.09;93632.97;4995095;28;9021;-62
2023/04/25 07:36:34;;;;;;;;;;;;;;;25.83;40.85;93643.47;4994464;28;7539;-61
2023/04/25 07:39:00;;;;;;;;;;;;;;;25.81;40.11;93644.00;4975106;28;7168;-61
2023/04/25 07:41:36;;;;;;;;;;;;;;;25.79;40.55;93637.53;4986895;28;9215;-61
2023/04/25 07:44:22;;;;;;;;;;;;;;;25.81;41.03;93654.28;4992662;28;7043;-61
2023/04/25 07:46:58;;;;;;;;;;;;;;;25.81;40.82;93651.50;4975023;28;7540;-61
2023/04/25 07:49:25;;;;;;;;;;;;;;;25.78;40.07;93650.56;4985882;28;7832;-61
2023/04/25 07:52:35;;;;;;;;;;;;;;;25.80;40.90;93661.03;5019400;28;7119;-62
2023/04/25 07:55:11;;;;;;;;;;;;;;;25.81;39.95;93665.28;5051467;28;9016;-62
2023/04/25 07:57:56;;;;;;;;;;;;;;;25.80;40.78;93663.78;5053741;28;7059;-62
2023/04/25 08:00:31;;;;;;;;;;;;;;;25.80;40.04;93669.31;5035884;28;8690;-61
2023/04/25 08:03:07;;;;;;;;;;;;;;;25.82;40.05;93672.25;5053438;28;8339;-62
2023/04/25 08:05:36;;;;;;;;;;;;;;;25.85;40.36;93666.47;5053543;28;7880;-61
2023/04/25 08:08:12;;;;;;;;;;;;;;;25.84;40.37;93664.97;5053921;28;7133;-61
2023/04/25 08:10:42;;;;;;;;;;;;;;;25.84;39.90;93675.97;5057660;28;9056;-61
2023/04/25 08:13:08;;;;;;;;;;;;;;;25.81;39.72;93668.03;5075858;28;9296;-61
2023/04/25 08:15:36;;;;;;;;;;;;;;;25.86;39.67;93678.22;5054707;28;6970;-61
2023/04/25 08:18:14;;;;;;;;;;;;;;;25.84;40.63;93686.25;5042896;28;7072;-61
2023/04/25 08:21:11;;;;;;;;;;;;;;;25.81;39.72;93693.59;5075373;28;7307;-61
2023/04/25 08:23:48;;;;;;;;;;;;;;;25.83;40.10;93701.31;5013615;28;7459;-61
2023/04/25 08:26:42;;;;;;;;;;;;;;;25.81;40.38;93704.59;4996366;28;9041;-61
2023/04/25 08:29:19;;;;;;;;;;;;;;;25.76;40.61;93707.44;5013622;28;9446;-62
2023/04/25 08:32:00;;;;;;;;;;;;;;;25.76;40.00;93702.69;4996993;28;7356;-62
2023/04/25 08:34:37;;;;;;;;;;;;;;;25.76;39.93;93707.44;5013373;28;9026;-61
2023/04/25 08:37:36;;;;;;;;;;;;;;;25.76;40.46;93713.69;5012552;28;7211;-61
2023/04/25 08:40:28;;;;;;;;;;;;;;;25.76;40.37;93719.22;4917155;29;9065;-61
2023/04/25 08:43:03;;;;;;;;;;;;;;;25.76;40.03;93712.94;4924594;29;7309;-61
2023/04/25 08:45:43;;;;;;;;;;;;;;;25.77;40.42;93723.47;4919927;29;7369;-61
2023/04/25 08:48:14;;;;;;;;;;;;;;;25.78;40.75;93733.19;4919055;29;9006;-62
2023/04/25 08:51:22;;;;;;;;;;;;;;;25.78;40.29;93737.97;4935694;29;8732;-61
2023/04/25 08:53:54;;;;;;;;;;;;;;;25.76;40.04;93735.75;4912555;29;9421;-62
2023/04/25 08:57:07;;;;;;;;;;;;;;;25.76;40.61;93732.97;4916006;29;7119;-62
2023/04/25 08:59:52;;;;;;;;;;;;;;;25.77;40.38;93737.22;4865911;29;7208;-61
2023/04/25 09:02:32;;;;;;;;;;;;;;;25.74;40.08;93738.28;4878741;29;8693;-61
2023/04/25 09:05:28;;;;;;;;;;;;;;;25.75;40.41;93742.50;4863013;29;7255;-62
2023/04/25 09:08:43;;;;;;;;;;;;;;;25.75;40.53;93739.03;4822246;29;7291;-61
2023/04/25 09:11:36;;;;;;;;;;;;;;;25.76;40.64;93744.00;4769263;30;8505;-62
2023/04/25 09:14:23;;;;;;;;;;;;;;;25.75;40.06;93756.28;4769482;30;7553;-61
2023/04/25 09:17:07;;;;;;;;;;;;;;;25.71;39.71;93755.13;4780556;30;7614;-61
2023/04/25 09:19:39;;;;;;;;;;;;;;;25.71;39.82;93760.63;4787306;29;9075;-61
2023/04/25 09:22:08;;;;;;;;;;;;;;;25.73;40.34;93780.84;4787079;30;7535;-61
2023/04/25 09:24:50;;;;;;;;;;;;;;;25.73;40.19;93780.84;4787281;30;9149;-61
2023/04/25 09:28:00;;;;;;;;;;;;;;;25.75;40.28;93799.63;4810394;29;7239;-61
2023/04/25 09:30:31;;;;;;;;;;;;;;;25.74;39.95;93792.63;4859997;29;9039;-61
2023/04/25 09:33:16;;;;;;;;;;;;;;;25.71;40.37;93788.91;4859609;29;8509;-62
2023/04/25 09:36:11;;;;;;;;;;;;;;;25.73;40.69;93786.34;4867613;29;7311;-61
2023/04/25 09:38:47;;;;;;;;;;;;;;;25.70;40.02;93786.69;4896304;29;7541;-61
2023/04/25 09:41:32;;;;;;;;;;;;;;;25.66;40.56;93784.25;4897095;29;7044;-61
2023/04/25 09:44:01;;;;;;;;;;;;;;;25.66;40.19;93800.78;4930654;28;9163;-61
2023/04/25 09:46:52;;;;;;;;;;;;;;;25.66;40.28;93787.00;4998376;28;7183;-61
2023/04/25 09:49:47;;;;;;;;;;;;;;;25.67;40.65;93799.50;5073095;28;7265;-61
2023/04/25 09:52:24;;;;;;;;;;;;;;;25.66;40.74;93803.53;4976659;28;8885;-61
2023/04/25 09:55:29;;;;;;;;;;;;;;;25.67;39.84;93816.00;4960509;28;7074;-61
2023/04/25 09:58:10;;;;;;;;;;;;;;;25.67;39.96;93820.78;4899317;29;7253;-61
2023/04/25 10:00:38;;;;;;;;;;;;;;;25.67;40.04;93821.53;4900297;29;8734;-61
2023/04/25 10:03:39;;;;;;;;;;;;;;;25.66;40.32;93824.81;4900059;29;7200;-61
2023/04/25 10:06:19;;;;;;;;;;;;;;;25.64;39.76;93816.31;4910342;29;9488;-61
2023/04/25 10:09:14;;;;;;;;;;;;;;;25.63;39.74;93834.84;4897169;29;9131;-60
2023/04/25 10:11:45;;;;;;;;;;;;;;;25.61;39.94;93842.16;4896728;29;8985;-61
2023/04/25 10:14:41;;;;;;;;;;;;;;;25.63;40.61;93856.88;4884314;29;9154;-61
2023/04/25 10:17:19;;;;;;;;;;;;;;;25.61;40.24;93855.91;4843281;29;8795;-61
2023/04/25 10:19:55;;;;;;;;;;;;;;;25.63;40.17;93845.13;4859499;29;9011;-61
2023/04/25 10:22:56;;;;;;;;;;;;;;;25.62;40.35;93836.13;4859491;29;8746;-61
2023/04/25 10:25:44;;;;;;;;;;;;;;;25.61;40.79;93844.91;4859560;29;7516;-61
2023/04/25 10:28:22;;;;;;;;;;;;;;;25.62;39.71;93849.88;4848544;29;8733;-61
2023/04/25 10:31:06;;;;;;;;;;;;;;;25.62;40.53;93836.13;4901193;28;8880;-61
2023/04/25 10:33:42;;;;;;;;;;;;;;;25.63;40.54;93839.63;4990595;28;7023;-61
2023/04/25 10:36:14;;;;;;;;;;;;;;;25.64;40.12;93830.09;4974759;28;7022;-61
2023/04/25 10:38:43;;;;;;;;;;;;;;;25.63;40.78;93843.13;4975078;28;10141;-61
2023/04/25 10:41:11;;;;;;;;;;;;;;;25.66;40.42;93839.31;4993689;28;7041;-61
2023/04/25 10:43:42;;;;;;;;;;;;;;;25.65;40.74;93842.59;4992615;28;9430;-62
2023/04/25 10:46:26;;;;;;;;;;;;;;;25.66;39.78;93844.84;4975203;28;9166;-61
2023/04/25 10:49:42;;;;;;;;;;;;;;;25.66;40.38;93839.31;4976171;28;7025;-61
2023/04/25 10:52:24;;;;;;;;;;;;;;;25.68;40.42;93838.78;4977205;28;8771;-61
2023/04/25 10:54:57;;;;;;;;;;;;;;;25.70;40.61;93841.75;5038213;28;7014;-62
2023/04/25 10:57:44;;;;;;;;;;;;;;;25.70;40.16;93828.00;5053459;28;8763;-61
2023/04/25 11:00:19;;;;;;;;;;;;;;;25.69;40.79;93829.25;5037031;28;9011;-61
2023/04/25 11:02:48;;;;;;;;;;;;;;;25.66;39.99;93836.56;5034983;28;7000;-61
2023/04/25 11:05:36;;;;;;;;;;;;;;;25.70;40.79;93839.00;5031944;28;9101;-61
2023/04/25 11:08:14;;;;;;;;;;;;;;;25.69;40.23;93837.50;5033801;28;7293;-62
2023/04/25 11:10:52;;;;;;;;;;;;;;;25.70;40.12;93844.53;5034570;28;9432;-61
2023/04/25 11:13:22;;;;;;;;;;;;;;;25.71;40.60;93840.50;5039750;28;7255;-61
2023/04/25 11:16:07;;;;;;;;;;;;;;;25.73;40.47;93851.75;5034045;28;8947;-61
2023/04/25 11:18:46;;;;;;;;;;;;;;;25.72;40.36;93844.72;5050752;28;6994;-61
2023/04/25 11:21:32;;;;;;;;;;;;;;;25.69;39.89;93851.28;5018354;28;9145;-62
2023/04/25 11:24:32;;;;;;;;;;;;;;;25.68;40.86;93850.56;5044161;28;7227;-62
2023/04/25 11:27:09;;;;;;;;;;;;;;;25.69;40.37;93856.78;4979032;28;7045;-62
2023/04/25 11:29:35;;;;;;;;;;;;;;;25.71;40.76;93854.28;5011155;28;9322;-61
2023/04/25 11:32:30;;;;;;;;;;;;;;;25.70;39.68;93853.53;4979156;28;7399;-61
2023/04/25 11:34:57;;;;;;;;;;;;;;;25.69;40.51;93851.28;4992036;28;7211;-61
2023/04/25 11:37:24;;;;;;;;;;;;;;;25.72;40.38;93850.25;4940338;28;8985;-61
2023/04/25 11:39:51;;;;;;;;;;;;;;;25.69;39.97;93840.25;4940452;28;9027;-61
2023/04/25 11:42:26;;;;;;;;;;;;;;;25.70;40.06;93850.78;4972156;28;9072;-61
2023/04/25 11:45:09;;;;;;;;;;;;;;;25.70;40.28;93859.03;4977711;28;7927;-61
2023/04/25 11:47:40;;;;;;;;;;;;;;;25.69;40.40;93859.53;4959108;28;7307;-61
2023/04/25 11:50:08;;;;;;;;;;;;;;;25.66;40.40;93857.84;4959103;28;7343;-61
2023/04/25 11:52:56;;;;;;;;;;;;;;;25.67;40.57;93870.34;4943496;28;9033;-61
2023/04/25 11:55:32;;;;;;;;;;;;;;;25.65;40.09;93883.91;4955425;28;7342;-61
2023/04/25 11:58:03;;;;;;;;;;;;;;;25.66;40.43;93897.16;4971590;28;7352;-61
2023/04/25 12:00:59;;;;;;;;;;;;;;;25.64;40.52;93901.69;4971856;28;8264;-61
2023/04/25 12:03:30;;;;;;;;;;;;;;;25.65;40.25;93906.69;5002816;28;8969;-61
2023/04/25 12:06:03;;;;;;;;;;;;;;;25.63;40.41;93903.72;5033869;28;7406;-61
2023/04/25 12:09:00;;;;;;;;;;;;;;;25.64;41.00;93891.44;5017082;28;7022;-61
2023/04/25 12:11:44;;;;;;;;;;;;;;;25.61;40.19;93897.97;5033639;28;7444;-61
2023/04/25 12:14:23;;;;;;;;;;;;;;;25.65;39.97;93909.44;5019356;28;7057;-61
2023/04/25 12:17:28;;;;;;;;;;;;;;;25.66;40.29;93904.69;5018551;28;7251;-61
2023/04/25 12:20:07;;;;;;;;;;;;;;;25.66;40.20;93908.19;5016814;28;8240;-62
2023/04/25 12:22:46;;;;;;;;;;;;;;;25.70;40.00;93910.63;5016906;28;9349;-62
2023/04/25 12:25:39;;;;;;;;;;;;;;;25.72;40.80;93910.84;5009854;28;7035;-61
2023/04/25 12:28:23;;;;;;;;;;;;;;;25.75;40.38;93905.03;5012126;28;7350;-61
2023/04/25 12:31:00;;;;;;;;;;;;;;;25.76;39.79;93906.53;5012470;28;9601;-62
2023/04/25 12:33:54;;;;;;;;;;;;;;;25.77;40.88;93901.75;4996890;28;7014;-61
2023/04/25 12:36:32;;;;;;;;;;;;;;;25.75;40.01;93896.75;4996742;28;7229;-61
2023/04/25 12:39:04;;;;;;;;;;;;;;;25.80;40.39;93904.19;5008621;28;8953;-61
2023/04/25 12:41:32;;;;;;;;;;;;;;;25.76;41.05;93894.75;4993862;28;9041;-61
2023/04/25 12:44:18;;;;;;;;;;;;;;;25.75;40.50;93898.78;4987585;28;7254;-61
2023/04/25 12:46:59;;;;;;;;;;;;;;;25.75;40.66;93902.28;4977199;28;9099;-61
2023/04/25 12:49:45;;;;;;;;;;;;;;;25.77;40.43;93905.28;4977235;28;7216;-61
2023/04/25 12:52:29;;;;;;;;;;;;;;;25.77;40.71;93902.50;4993805;28;8636;-61
2023/04/25 12:55:45;;;;;;;;;;;;;;;25.77;40.93;93907.28;5034221;28;8241;-61
2023/04/25 12:58:20;;;;;;;;;;;;;;;25.80;40.68;93911.72;5053793;28;7255;-61
2023/04/25 13:01:01;;;;;;;;;;;;;;;25.77;40.67;93902.50;5053772;28;7243;-62
2023/04/25 13:03:27;;;;;;;;;;;;;;;25.80;40.91;93906.22;5053780;28;9795;-61
2023/04/25 13:05:53;;;;;;;;;;;;;;;25.79;40.23;93916.50;5035848;28;8920;-62
2023/04/25 13:08:19;;;;;;;;;;;;;;;25.80;40.78;93906.97;5052434;28;7100;-61
2023/04/25 13:10:52;;;;;;;;;;;;;;;25.79;40.26;93911.00;5052034;28;7040;-62
2023/04/25 13:13:18;;;;;;;;;;;;;;;25.78;40.76;93914.25;5035180;28;6904;-61
2023/04/25 13:15:46;;;;;;;;;;;;;;;25.82;40.63;93904.41;5053391;28;9220;-61
2023/04/25 13:18:30;;;;;;;;;;;;;;;25.79;40.25;93911.00;5054271;28;8289;-62
2023/04/25 13:21:18;;;;;;;;;;;;;;;25.84;40.48;93910.16;5036355;28;7216;-61
2023/04/25 13:23:52;;;;;;;;;;;;;;;25.84;41.10;93912.91;5038566;28;8041;-61
2023/04/25 13:26:32;;;;;;;;;;;;;;;25.83;40.55;93907.94;5056475;28;9112;-61
2023/04/25 13:29:00;;;;;;;;;;;;;;;25.83;41.10;93910.69;5071768;28;7819;-62
2023/04/25 13:31:28;;;;;;;;;;;;;;;25.85;40.91;93899.88;5073166;28;7255;-62
2023/04/25 13:33:54;;;;;;;;;;;;;;;25.85;40.56;93897.13;5043621;28;9189;-62
2023/04/25 13:36:27;;;;;;;;;;;;;;;25.86;40.47;93893.13;5053071;28;7201;-62
2023/04/25 13:38:54;;;;;;;;;;;;;;;25.84;40.80;93899.13;5036592;28;7276;-61
2023/04/25 13:41:24;;;;;;;;;;;;;;;25.87;40.46;93895.34;5073016;28;7031;-61
2023/04/25 13:43:59;;;;;;;;;;;;;;;25.85;40.67;93886.84;5073307;28;6998;-61